createdAt,value
2019-04-20T00:00:01.083Z,42.40
2019-04-20T00:02:25.763Z,42.60
2019-04-20T00:04:55.092Z,42.80
2019-04-20T00:07:29.555Z,42.70
2019-04-20T00:10:01.400Z,43.00
2019-04-20T00:12:37.379Z,43.30
2019-04-20T00:14:56.693Z,42.50
2019-04-20T00:17:26.724Z,42.20
2019-04-20T00:19:57.749Z,42.10
2019-04-20T00:22:42.679Z,42.50
2019-04-20T00:25:39.528Z,42.80
2019-04-20T00:28:22.422Z,42.80
2019-04-20T00:30:53.376Z,42.90
2019-04-20T00:33:21.992Z,43.40
2019-04-20T00:35:38.008Z,43.40
2019-04-20T00:38:07.818Z,43.60
2019-04-20T00:40:37.353Z,43.80
2019-04-20T00:43:06.799Z,44.10
2019-04-20T00:45:41.396Z,44.50
2019-04-20T00:48:19.974Z,44.80
2019-04-20T00:50:52.545Z,45.20
2019-04-20T00:53:17.092Z,45.30
2019-04-20T00:55:40.162Z,45.40
2019-04-20T00:58:19.415Z,45.60
2019-04-20T01:01:04.094Z,45.30
2019-04-20T01:03:32.407Z,45.10
2019-04-20T01:06:18.836Z,45.50
2019-04-20T01:08:53.041Z,45.10
2019-04-20T01:11:27.006Z,46.10
2019-04-20T01:14:00.252Z,45.80
2019-04-20T01:16:36.577Z,45.60
2019-04-20T01:18:54.662Z,44.00
2019-04-20T01:21:27.104Z,43.80
2019-04-20T01:23:59.520Z,43.20
2019-04-20T01:26:27.339Z,42.70
2019-04-20T01:29:08.719Z,42.20
2019-04-20T01:31:34.603Z,42.00
2019-04-20T01:34:06.408Z,42.20
2019-04-20T01:36:46.098Z,42.20
2019-04-20T01:39:12.744Z,42.20
2019-04-20T01:41:30.765Z,42.20
2019-04-20T01:44:00.500Z,42.10
2019-04-20T01:46:31.393Z,42.10
2019-04-20T01:49:10.546Z,42.20
2019-04-20T01:51:43.010Z,42.20
2019-04-20T01:54:21.355Z,42.40
2019-04-20T01:56:55.576Z,42.60
2019-04-20T01:59:39.991Z,42.80
2019-04-20T02:02:25.791Z,42.70
2019-04-20T02:05:04.522Z,42.60
2019-04-20T02:07:35.088Z,43.30
2019-04-20T02:10:03.666Z,42.80
2019-04-20T02:12:33.994Z,42.70
2019-04-20T02:15:04.214Z,43.40
2019-04-20T02:17:39.156Z,43.10
2019-04-20T02:20:23.444Z,43.20
2019-04-20T02:22:48.692Z,43.70
2019-04-20T02:25:03.812Z,44.00
2019-04-20T02:27:38.566Z,43.90
2019-04-20T02:30:45.077Z,43.90
2019-04-20T02:33:17.903Z,44.00
2019-04-20T02:39:19.042Z,44.60
2019-04-20T02:41:30.014Z,44.90
2019-04-20T02:44:06.530Z,45.70
2019-04-20T02:46:31.594Z,46.10
2019-04-20T02:49:01.023Z,46.50
2019-04-20T02:51:35.452Z,46.30
2019-04-20T02:54:11.461Z,46.60
2019-04-20T02:56:45.352Z,46.60
2019-04-20T02:59:31.646Z,46.30
2019-04-20T03:01:53.208Z,46.90
2019-04-20T03:04:06.988Z,47.30
2019-04-20T03:06:53.526Z,47.80
2019-04-20T03:09:29.698Z,47.90
2019-04-20T03:14:21.863Z,48.20
2019-04-20T03:17:08.121Z,48.30
2019-04-20T03:19:24.979Z,48.50
2019-04-20T03:22:06.494Z,48.30
2019-04-20T03:24:37.598Z,48.00
2019-04-20T03:27:14.582Z,47.90
2019-04-20T03:29:52.635Z,47.70
2019-04-20T03:37:37.008Z,49.20
2019-04-20T03:39:56.802Z,48.70
2019-04-20T03:42:16.002Z,49.00
2019-04-20T03:44:54.331Z,48.80
2019-04-20T03:47:26.680Z,49.00
2019-04-20T03:50:10.742Z,49.10
2019-04-20T03:52:51.395Z,48.70
2019-04-20T03:55:19.995Z,48.60
2019-04-20T03:58:10.551Z,48.80
2019-04-20T04:00:54.546Z,48.80
2019-04-20T04:03:41.117Z,48.60
2019-04-20T04:06:04.069Z,49.00
2019-04-20T04:08:27.777Z,49.20
2019-04-20T04:11:08.504Z,49.30
2019-04-20T04:13:21.017Z,49.10
2019-04-20T04:15:57.784Z,49.50
2019-04-20T04:18:28.184Z,50.00
2019-04-20T04:21:01.498Z,50.30
2019-04-20T04:23:40.327Z,50.00
2019-04-20T04:26:11.607Z,50.00
2019-04-20T04:28:41.158Z,51.00
2019-04-20T04:31:11.937Z,50.50
2019-04-20T04:36:15.777Z,50.20
2019-04-20T04:38:51.345Z,49.90
2019-04-20T04:41:32.265Z,49.80
2019-04-20T04:43:51.111Z,50.50
2019-04-20T04:46:01.683Z,49.90
2019-04-20T04:48:35.793Z,50.20
2019-04-20T04:51:08.960Z,49.80
2019-04-20T04:53:44.371Z,49.40
2019-04-20T04:56:09.452Z,49.10
2019-04-20T04:58:34.253Z,49.40
2019-04-20T05:01:10.894Z,49.50
2019-04-20T05:03:53.561Z,49.60
2019-04-20T05:06:28.097Z,49.60
2019-04-20T05:08:49.788Z,49.90
2019-04-20T05:11:15.203Z,50.10
2019-04-20T05:13:52.342Z,49.60
2019-04-20T05:16:36.034Z,49.80
2019-04-20T05:19:09.517Z,49.70
2019-04-20T05:22:09.293Z,49.90
2019-04-20T05:25:02.271Z,50.10
2019-04-20T05:27:47.898Z,50.60
2019-04-20T05:29:59.269Z,50.50
2019-04-20T05:32:37.863Z,50.50
2019-04-20T05:35:22.632Z,50.50
2019-04-20T05:38:05.131Z,50.50
2019-04-20T05:40:25.162Z,50.30
2019-04-20T05:42:54.111Z,50.20
2019-04-20T05:45:22.033Z,50.10
2019-04-20T05:47:53.606Z,50.10
2019-04-20T05:50:28.943Z,50.20
2019-04-20T05:53:03.263Z,50.30
2019-04-20T05:55:31.304Z,50.00
2019-04-20T05:58:04.317Z,49.90
2019-04-20T06:00:38.972Z,49.60
2019-04-20T06:02:59.315Z,49.30
2019-04-20T06:05:36.425Z,50.00
2019-04-20T06:08:05.175Z,50.00
2019-04-20T06:10:43.670Z,49.50
2019-04-20T06:13:00.215Z,48.80
2019-04-20T06:15:46.779Z,48.60
2019-04-20T06:18:23.090Z,48.40
2019-04-20T06:21:00.397Z,48.40
2019-04-20T06:23:44.673Z,48.50
2019-04-20T06:26:26.671Z,49.00
2019-04-20T06:28:37.777Z,48.70
2019-04-20T06:31:14.901Z,48.00
2019-04-20T06:34:39.913Z,47.20
2019-04-20T06:37:07.161Z,46.70
2019-04-20T06:39:34.839Z,45.60
2019-04-20T06:42:15.229Z,44.60
2019-04-20T06:49:32.934Z,42.00
2019-04-20T06:52:18.666Z,41.50
2019-04-20T06:55:11.185Z,41.10
2019-04-20T06:57:40.292Z,41.40
2019-04-20T07:00:44.509Z,40.50
2019-04-20T07:02:54.360Z,38.30
2019-04-20T07:05:13.076Z,38.20
2019-04-20T07:07:47.688Z,38.50
2019-04-20T07:10:18.253Z,38.40
2019-04-20T07:12:40.874Z,37.90
2019-04-20T07:15:14.951Z,38.00
2019-04-20T07:17:58.942Z,37.90
2019-04-20T07:20:51.619Z,37.20
2019-04-20T07:25:43.238Z,35.90
2019-04-20T07:28:19.670Z,36.80
2019-04-20T07:30:46.524Z,41.30
2019-04-20T07:33:18.616Z,44.00
2019-04-20T07:35:46.509Z,43.60
2019-04-20T07:38:34.280Z,43.30
2019-04-20T07:40:45.893Z,44.20
2019-04-20T07:43:17.171Z,44.70
2019-04-20T07:45:51.394Z,44.60
2019-04-20T07:48:21.271Z,43.10
2019-04-20T07:50:40.831Z,42.20
2019-04-20T07:53:18.570Z,41.90
2019-04-20T07:55:56.308Z,41.20
2019-04-20T07:58:15.588Z,39.40
2019-04-20T08:01:04.218Z,39.20
2019-04-20T08:03:50.171Z,38.30
2019-04-20T08:06:22.035Z,37.60
2019-04-20T08:09:02.475Z,37.00
2019-04-20T08:11:47.566Z,37.00
2019-04-20T08:14:14.769Z,36.30
2019-04-20T08:16:49.004Z,36.30
2019-04-20T08:19:12.225Z,35.60
2019-04-20T08:21:40.912Z,35.00
2019-04-20T08:24:07.487Z,34.80
2019-04-20T08:26:29.550Z,33.80
2019-04-20T08:29:02.434Z,33.10
2019-04-20T08:32:16.415Z,33.50
2019-04-20T08:34:53.496Z,30.30
2019-04-20T08:37:15.890Z,28.30
2019-04-20T08:42:20.528Z,28.20
2019-04-20T08:45:12.789Z,29.70
2019-04-20T08:47:35.345Z,29.80
2019-04-20T08:50:16.208Z,28.30
2019-04-20T08:53:07.189Z,26.30
2019-04-20T08:55:12.267Z,26.60
2019-04-20T08:57:24.773Z,26.40
2019-04-20T08:59:54.414Z,27.00
2019-04-20T09:02:23.931Z,25.40
2019-04-20T09:05:01.071Z,25.70
2019-04-20T09:07:28.298Z,26.10
2019-04-20T09:10:16.607Z,25.80
2019-04-20T09:12:43.616Z,25.60
2019-04-20T09:14:57.335Z,25.80
2019-04-20T09:18:00.885Z,25.10
2019-04-20T09:20:38.351Z,24.90
2019-04-20T09:23:17.206Z,24.20
2019-04-20T09:28:37.311Z,23.30
2019-04-20T09:31:36.911Z,24.30
2019-04-20T09:34:26.308Z,23.30
2019-04-20T09:37:29.406Z,23.20
2019-04-20T09:40:21.241Z,23.00
2019-04-20T09:42:57.309Z,23.10
2019-04-20T09:45:38.178Z,23.10
2019-04-20T09:48:12.553Z,23.20
2019-04-20T09:50:54.861Z,23.50
2019-04-20T09:53:19.738Z,23.10
2019-04-20T09:55:53.287Z,22.60
2019-04-20T09:58:20.321Z,22.20
2019-04-20T10:00:58.258Z,23.00
2019-04-20T10:03:16.541Z,22.10
2019-04-20T10:05:47.461Z,21.70
2019-04-20T10:08:17.620Z,21.90
2019-04-20T10:10:48.762Z,21.80
2019-04-20T10:13:17.852Z,21.80
2019-04-20T10:15:47.807Z,22.30
2019-04-20T10:18:17.510Z,23.10
2019-04-20T10:20:47.368Z,23.80
2019-04-20T10:23:16.882Z,23.30
2019-04-20T10:25:46.795Z,23.90
2019-04-20T10:28:16.052Z,24.00
2019-04-20T10:30:46.304Z,25.40
2019-04-20T10:33:15.613Z,25.80
2019-04-20T10:35:45.537Z,25.80
2019-04-20T10:38:19.706Z,27.30
2019-04-20T10:40:57.244Z,26.70
2019-04-20T10:43:19.876Z,26.80
2019-04-20T10:45:48.998Z,27.10
2019-04-20T10:48:19.254Z,27.20
2019-04-20T10:50:49.292Z,26.70
2019-04-20T10:53:19.630Z,26.10
2019-04-20T10:55:49.473Z,26.20
2019-04-20T10:58:19.748Z,25.90
2019-04-20T11:00:50.058Z,25.00
2019-04-20T11:03:20.116Z,25.50
2019-04-20T11:05:49.283Z,24.40
2019-04-20T11:08:18.758Z,24.30
2019-04-20T11:11:07.329Z,24.40
2019-04-20T11:13:27.594Z,24.30
2019-04-20T11:15:56.817Z,23.50
2019-04-20T11:18:27.255Z,23.40
2019-04-20T11:20:57.456Z,22.50
2019-04-20T11:23:26.802Z,22.30
2019-04-20T11:25:56.061Z,22.00
2019-04-20T11:28:26.187Z,21.30
2019-04-20T11:30:56.301Z,20.90
2019-04-20T11:33:25.503Z,21.70
2019-04-20T11:35:54.997Z,22.20
2019-04-20T11:38:24.469Z,22.20
2019-04-20T11:41:06.283Z,21.80
2019-04-20T11:43:24.443Z,21.90
2019-04-20T11:45:54.435Z,21.50
2019-04-20T11:48:23.808Z,20.60
2019-04-20T11:50:53.598Z,20.20
2019-04-20T11:53:26.491Z,19.90
2019-04-20T11:55:54.263Z,19.70
2019-04-20T11:58:23.852Z,19.30
2019-04-20T12:01:01.464Z,19.50
2019-04-20T12:03:35.378Z,20.10
2019-04-20T12:05:59.772Z,19.00
2019-04-20T12:08:29.287Z,18.40
2019-04-20T12:11:03.094Z,18.30
2019-04-20T12:13:29.369Z,18.90
2019-04-20T12:15:59.408Z,17.90
2019-04-20T12:18:29.547Z,17.80
2019-04-20T12:20:58.929Z,18.10
2019-04-20T12:23:28.522Z,18.20
2019-04-20T12:25:57.795Z,17.70
2019-04-20T12:28:27.537Z,17.30
2019-04-20T12:31:04.134Z,17.10
2019-04-20T12:33:28.540Z,17.00
2019-04-20T12:35:58.366Z,16.70
2019-04-20T12:38:27.705Z,16.90
2019-04-20T12:40:58.147Z,16.60
2019-04-20T12:43:27.833Z,17.00
2019-04-20T12:45:57.967Z,15.80
2019-04-20T12:48:27.351Z,16.00
2019-04-20T12:50:57.506Z,16.00
2019-04-20T12:53:26.781Z,16.00
2019-04-20T12:55:56.786Z,16.00
2019-04-20T12:58:26.345Z,15.70
2019-04-20T13:00:56.323Z,16.20
2019-04-20T13:03:25.643Z,16.50
2019-04-20T13:05:56.051Z,16.50
2019-04-20T13:08:30.386Z,16.80
2019-04-20T13:11:00.416Z,16.20
2019-04-20T13:13:52.510Z,16.70
2019-04-20T13:16:28.582Z,16.70
2019-04-20T13:19:03.513Z,16.80
2019-04-20T13:21:33.087Z,17.20
2019-04-20T13:24:03.263Z,17.10
2019-04-20T13:26:33.238Z,17.80
2019-04-20T13:29:02.570Z,18.10
2019-04-20T13:31:31.777Z,17.90
2019-04-20T13:34:01.502Z,17.40
2019-04-20T13:36:32.269Z,18.20
2019-04-20T13:39:01.850Z,18.40
2019-04-20T13:41:31.709Z,18.60
2019-04-20T13:44:03.127Z,18.90
2019-04-20T13:46:33.070Z,19.10
2019-04-20T13:49:03.006Z,18.60
2019-04-20T13:51:32.889Z,18.70
2019-04-20T13:54:08.651Z,19.00
2019-04-20T13:56:34.025Z,18.70
2019-04-20T13:59:12.379Z,18.70
2019-04-20T14:01:47.122Z,20.30
2019-04-20T14:04:22.996Z,19.50
2019-04-20T14:06:53.347Z,18.60
2019-04-20T14:09:23.544Z,19.20
2019-04-20T14:11:53.664Z,19.20
2019-04-20T14:14:23.470Z,18.80
2019-04-20T14:16:52.995Z,19.00
2019-04-20T14:19:23.204Z,19.10
2019-04-20T14:21:52.482Z,20.10
2019-04-20T14:24:21.638Z,20.30
2019-04-20T14:26:50.892Z,20.20
2019-04-20T14:29:20.884Z,20.30
2019-04-20T14:31:50.112Z,20.60
2019-04-20T14:34:20.603Z,20.90
2019-04-20T14:36:50.900Z,21.00
2019-04-20T14:39:20.477Z,21.30
2019-04-20T14:41:49.638Z,20.90
2019-04-20T14:44:19.606Z,20.70
2019-04-20T14:46:49.708Z,20.40
2019-04-20T14:49:19.185Z,20.50
2019-04-20T14:51:49.890Z,20.80
2019-04-20T14:54:19.290Z,20.80
2019-04-20T14:56:49.571Z,20.60
2019-04-20T14:59:23.339Z,20.60
2019-04-20T15:01:59.237Z,20.40
2019-04-20T15:04:30.717Z,20.60
2019-04-20T15:07:02.958Z,20.80
2019-04-20T15:09:34.548Z,20.60
2019-04-20T15:12:04.532Z,20.90
2019-04-20T15:14:34.611Z,21.20
2019-04-20T15:17:04.753Z,21.10
2019-04-20T15:19:57.131Z,20.60
2019-04-20T15:22:45.466Z,20.90
2019-04-20T15:25:16.197Z,21.30
2019-04-20T15:27:46.286Z,21.10
2019-04-20T15:30:16.359Z,21.10
2019-04-20T15:32:45.594Z,20.90
2019-04-20T15:35:17.832Z,21.00
2019-04-20T15:37:46.931Z,21.20
2019-04-20T15:40:17.267Z,20.80
2019-04-20T15:42:54.837Z,21.60
2019-04-20T15:45:18.925Z,21.70
2019-04-20T15:47:49.965Z,21.30
2019-04-20T15:50:20.249Z,21.20
2019-04-20T15:52:52.673Z,20.70
2019-04-20T15:55:26.387Z,20.60
2019-04-20T15:57:51.321Z,20.80
2019-04-20T16:00:20.457Z,20.70
2019-04-20T16:02:57.135Z,21.00
2019-04-20T16:05:45.123Z,20.90
2019-04-20T16:08:32.541Z,21.10
2019-04-20T16:11:04.688Z,20.30
2019-04-20T16:13:37.931Z,20.50
2019-04-20T16:16:03.818Z,20.90
2019-04-20T16:18:33.021Z,21.40
2019-04-20T16:21:07.960Z,20.60
2019-04-20T16:23:42.979Z,20.70
2019-04-20T16:26:31.609Z,20.60
2019-04-20T16:29:01.839Z,21.00
2019-04-20T16:31:31.168Z,20.80
2019-04-20T16:34:01.168Z,20.80
2019-04-20T16:36:30.566Z,20.80
2019-04-20T16:38:59.698Z,21.20
2019-04-20T16:41:28.877Z,21.60
2019-04-20T16:43:57.974Z,21.90
2019-04-20T16:46:28.101Z,22.10
2019-04-20T16:48:58.892Z,22.20
2019-04-20T16:51:29.204Z,22.00
2019-04-20T16:53:59.536Z,22.70
2019-04-20T16:56:28.821Z,23.50
2019-04-20T16:59:05.486Z,24.20
2019-04-20T17:01:29.705Z,24.60
2019-04-20T17:04:06.791Z,24.90
2019-04-20T17:06:31.734Z,25.30
2019-04-20T17:09:01.413Z,25.80
2019-04-20T17:11:31.722Z,26.50
2019-04-20T17:14:03.128Z,26.70
2019-04-20T17:16:31.826Z,26.60
2019-04-20T17:19:01.751Z,26.80
2019-04-20T17:21:32.227Z,27.00
2019-04-20T17:24:01.825Z,26.50
2019-04-20T17:26:41.000Z,26.30
2019-04-20T17:29:20.113Z,26.60
2019-04-20T17:32:11.685Z,26.20
2019-04-20T17:34:58.189Z,26.50
2019-04-20T17:37:12.863Z,26.40
2019-04-20T17:40:09.067Z,26.80
2019-04-20T17:42:32.455Z,27.10
2019-04-20T17:44:52.796Z,27.40
2019-04-20T17:47:34.900Z,27.80
2019-04-20T17:50:06.920Z,27.60
2019-04-20T17:52:40.279Z,27.80
2019-04-20T17:54:55.812Z,28.00
2019-04-20T17:57:25.465Z,28.40
2019-04-20T18:00:07.045Z,28.70
2019-04-20T18:02:53.561Z,28.90
2019-04-20T18:05:39.148Z,29.20
2019-04-20T18:08:10.654Z,29.50
2019-04-20T18:10:36.402Z,29.70
2019-04-20T18:12:55.364Z,29.90
2019-04-20T18:15:35.997Z,30.00
2019-04-20T18:18:42.039Z,30.20
2019-04-20T18:21:03.176Z,30.40
2019-04-20T18:23:38.071Z,30.70
2019-04-20T18:26:25.587Z,30.10
2019-04-20T18:28:58.664Z,29.70
2019-04-20T18:31:17.449Z,30.10
2019-04-20T18:33:48.496Z,30.10
2019-04-20T18:36:23.639Z,30.00
2019-04-20T18:38:55.306Z,30.10
2019-04-20T18:41:33.243Z,30.30
2019-04-20T18:43:55.344Z,30.00
2019-04-20T18:46:39.648Z,30.10
2019-04-20T18:49:10.318Z,30.30
2019-04-20T18:51:23.827Z,30.70
2019-04-20T18:53:53.949Z,31.00
2019-04-20T18:56:31.207Z,30.70
2019-04-20T18:58:56.466Z,30.90
2019-04-20T19:01:31.008Z,31.10
2019-04-20T19:03:57.312Z,31.70
2019-04-20T19:06:27.717Z,30.30
2019-04-20T19:08:57.330Z,30.00
2019-04-20T19:11:28.895Z,30.00
2019-04-20T19:14:26.180Z,29.80
2019-04-20T19:17:04.528Z,30.10
2019-04-20T19:19:37.464Z,30.30
2019-04-20T19:21:58.870Z,31.00
2019-04-20T19:24:32.749Z,30.90
2019-04-20T19:27:03.551Z,31.30
2019-04-20T19:29:36.597Z,31.70
2019-04-20T19:32:19.533Z,31.70
2019-04-20T19:34:45.330Z,31.90
2019-04-20T19:37:14.056Z,32.10
2019-04-20T19:39:49.456Z,32.60
2019-04-20T19:42:19.752Z,33.40
2019-04-20T19:44:51.820Z,34.00
2019-04-20T19:47:28.162Z,34.40
2019-04-20T19:49:47.245Z,34.80
2019-04-20T19:52:46.348Z,34.80
2019-04-20T19:54:56.834Z,34.30
2019-04-20T19:57:28.554Z,34.30
2019-04-20T19:59:45.787Z,34.70
2019-04-20T20:02:11.672Z,34.80
2019-04-20T20:04:48.630Z,34.40
2019-04-20T20:07:21.918Z,34.40
2019-04-20T20:09:52.248Z,34.30
2019-04-20T20:12:16.536Z,36.20
2019-04-20T20:14:47.787Z,36.50
2019-04-20T20:17:39.939Z,36.80
2019-04-20T20:20:16.967Z,37.00
2019-04-20T20:22:28.431Z,37.40
2019-04-20T20:24:49.297Z,37.70
2019-04-20T20:27:24.251Z,38.00
2019-04-20T20:30:03.758Z,38.70
2019-04-20T20:32:39.189Z,39.80
2019-04-20T20:35:04.496Z,40.10
2019-04-20T20:37:34.654Z,39.80
2019-04-20T20:40:07.097Z,40.30
2019-04-20T20:42:35.421Z,40.40
2019-04-20T20:45:06.930Z,40.20
2019-04-20T20:47:49.011Z,39.90
2019-04-20T20:50:33.160Z,40.10
2019-04-20T20:52:43.680Z,40.20
2019-04-20T20:55:06.862Z,40.50
2019-04-20T20:57:43.667Z,40.70
2019-04-20T21:00:07.443Z,41.30
2019-04-20T21:02:44.673Z,41.60
2019-04-20T21:05:01.851Z,41.50
2019-04-20T21:07:31.257Z,41.80
2019-04-20T21:10:00.709Z,41.60
2019-04-20T21:12:30.570Z,41.30
2019-04-20T21:15:06.957Z,41.20
2019-04-20T21:17:40.930Z,41.00
2019-04-20T21:20:18.287Z,40.80
2019-04-20T21:22:49.181Z,40.40
2019-04-20T21:25:05.316Z,40.00
2019-04-20T21:27:34.956Z,39.50
2019-04-20T21:30:05.545Z,39.00
2019-04-20T21:32:41.714Z,38.10
2019-04-20T21:35:10.506Z,37.60
2019-04-20T21:37:37.040Z,37.60
2019-04-20T21:40:16.755Z,37.70
2019-04-20T21:42:44.353Z,37.60
2019-04-20T21:45:16.457Z,37.40
2019-04-20T21:47:41.755Z,37.50
2019-04-20T21:50:25.353Z,37.40
2019-04-20T21:52:45.208Z,37.50
2019-04-20T21:55:12.146Z,37.50
2019-04-20T21:57:48.542Z,37.70
2019-04-20T22:00:24.986Z,38.00
2019-04-20T22:02:52.135Z,38.10
2019-04-20T22:05:16.814Z,38.20
2019-04-20T22:07:46.435Z,38.00
2019-04-20T22:10:20.168Z,37.70
2019-04-20T22:12:53.552Z,37.60
2019-04-20T22:15:24.882Z,38.20
2019-04-20T22:17:48.597Z,39.30
2019-04-20T22:20:26.723Z,39.70
2019-04-20T22:23:00.933Z,39.80
2019-04-20T22:25:39.233Z,39.90
2019-04-20T22:27:50.541Z,40.10
2019-04-20T22:30:19.938Z,40.40
2019-04-20T22:32:50.664Z,40.50
2019-04-20T22:35:21.357Z,40.70
2019-04-20T22:38:08.893Z,41.00
2019-04-20T22:40:36.730Z,41.10
2019-04-20T22:43:06.376Z,41.10
2019-04-20T22:45:39.728Z,41.00
2019-04-20T22:48:09.010Z,41.10
2019-04-20T22:50:52.319Z,41.20
2019-04-20T22:53:26.307Z,41.40
2019-04-20T22:56:01.441Z,41.30
2019-04-20T22:58:23.534Z,41.20
2019-04-20T23:00:51.467Z,40.90
2019-04-20T23:03:12.605Z,40.50
2019-04-20T23:05:42.763Z,42.50
2019-04-20T23:08:12.935Z,43.20
2019-04-20T23:10:46.193Z,43.10
2019-04-20T23:13:13.751Z,42.90
2019-04-20T23:15:49.201Z,43.20
2019-04-20T23:18:14.008Z,44.10
2019-04-20T23:20:44.126Z,44.50
2019-04-20T23:23:19.366Z,44.00
2019-04-20T23:25:45.129Z,43.90
2019-04-20T23:28:18.051Z,43.90
2019-04-20T23:30:45.786Z,43.70
2019-04-20T23:33:16.131Z,43.80
2019-04-20T23:35:49.901Z,43.40
2019-04-20T23:38:20.843Z,43.80
2019-04-20T23:40:47.840Z,44.10
2019-04-20T23:43:28.180Z,44.20
2019-04-20T23:46:33.234Z,45.10
2019-04-20T23:49:27.214Z,45.60
2019-04-20T23:52:11.867Z,46.00
2019-04-20T23:54:27.409Z,46.20
2019-04-20T23:56:53.572Z,46.00
2019-04-20T23:59:27.753Z,46.00
